Time;durP1;ratioP1;P1;durP2;ratioP2;P2;SDS_P1;SDS_P2;PMS_P1;PMS_P2;Temp;Humidity;BMP_temperature;BMP_pressure;BME280_temperature;BME280_humidity;BME280_pressure;Samples;Min_cycle;Max_cycle;Signal;HPM_P1;HPM_P2
2022/09/26 00:01:21;;;;;;;8.70;6.70;;;12.90;99.90;;;;;;5027891;28;20187;-60
2022/09/26 00:03:52;;;;;;;7.32;6.55;;;13.00;99.90;;;;;;5030118;28;20197;-60
2022/09/26 00:06:19;;;;;;;7.68;6.82;;;13.00;99.90;;;;;;5025203;28;20634;-60
2022/09/26 00:08:46;;;;;;;7.65;6.85;;;12.90;99.90;;;;;;5033868;28;20671;-59
2022/09/26 00:11:15;;;;;;;9.13;8.18;;;12.60;99.90;;;;;;5024917;28;20683;-61
2022/09/26 00:13:41;;;;;;;8.73;7.53;;;12.70;99.90;;;;;;5030604;28;20189;-61
2022/09/26 00:16:09;;;;;;;9.70;8.25;;;13.10;99.90;;;;;;5026204;28;20204;-61
2022/09/26 00:18:35;;;;;;;8.27;7.03;;;12.80;99.90;;;;;;5029254;28;20182;-61
2022/09/26 00:21:03;;;;;;;9.55;7.18;;;12.80;99.90;;;;;;5028928;28;20205;-61
2022/09/26 00:23:28;;;;;;;13.90;7.55;;;12.60;99.90;;;;;;5029365;28;20185;-61
2022/09/26 00:25:59;;;;;;;8.57;7.20;;;12.60;99.90;;;;;;5027262;28;20209;-61
2022/09/26 00:28:26;;;;;;;8.00;6.70;;;12.70;99.90;;;;;;5030457;28;20190;-61
2022/09/26 00:30:52;;;;;;;8.23;7.10;;;12.80;99.90;;;;;;5030266;28;20205;-62
2022/09/26 00:33:19;;;;;;;10.57;6.73;;;13.00;99.90;;;;;;5028287;28;20202;-61
2022/09/26 00:35:52;;;;;;;7.47;6.55;;;13.10;99.90;;;;;;5029240;28;20464;-60
2022/09/26 00:38:18;;;;;;;8.10;7.40;;;12.80;99.90;;;;;;5028320;28;20293;-60
2022/09/26 00:40:45;;;;;;;8.50;7.07;;;12.60;99.90;;;;;;5025720;28;20293;-62
2022/09/26 00:43:30;;;;;;;8.35;7.45;;;12.50;99.90;;;;;;5033268;28;20979;-59
2022/09/26 00:46:20;;;;;;;8.60;7.15;;;12.50;99.90;;;;;;5028831;28;20210;-59
2022/09/26 00:48:52;;;;;;;8.60;7.53;;;12.50;99.90;;;;;;5027245;28;20196;-60
2022/09/26 00:51:18;;;;;;;9.35;8.00;;;12.50;99.90;;;;;;5028970;28;20213;-60
2022/09/26 00:53:49;;;;;;;8.60;7.80;;;12.30;99.90;;;;;;5032470;28;20268;-60
2022/09/26 00:56:31;;;;;;;9.77;7.97;;;12.30;99.90;;;;;;5031833;28;20599;-61
2022/09/26 00:59:07;;;;;;;8.35;7.38;;;12.30;99.90;;;;;;5034293;28;20218;-60
2022/09/26 01:01:33;;;;;;;9.13;7.93;;;12.10;99.90;;;;;;5033071;28;20223;-61
2022/09/26 01:04:02;;;;;;;9.05;7.35;;;12.30;99.90;;;;;;5033655;28;20228;-60
2022/09/26 01:06:28;;;;;;;8.30;7.50;;;12.20;99.90;;;;;;5030915;28;20252;-60
2022/09/26 01:09:00;;;;;;;9.37;7.77;;;12.20;99.90;;;;;;5033943;28;20201;-61
2022/09/26 01:11:27;;;;;;;8.02;7.13;;;12.10;99.90;;;;;;5028943;28;20206;-60
2022/09/26 01:13:55;;;;;;;8.35;7.00;;;12.00;99.90;;;;;;5033338;28;20187;-61
2022/09/26 01:16:21;;;;;;;10.10;7.40;;;12.20;99.90;;;;;;5032073;28;20600;-62
2022/09/26 01:18:47;;;;;;;10.07;8.03;;;12.10;99.90;;;;;;5030829;28;20189;-59
2022/09/26 01:21:31;;;;;;;10.43;8.40;;;12.00;99.90;;;;;;5030894;28;20248;-59
2022/09/26 01:24:13;;;;;;;7.97;7.13;;;11.90;99.90;;;;;;5028785;28;20452;-60
2022/09/26 01:27:13;;;;;;;7.82;7.05;;;12.00;99.90;;;;;;5025755;28;20209;-60
2022/09/26 01:29:57;;;;;;;10.35;8.02;;;11.80;99.90;;;;;;5033227;28;20197;-60
2022/09/26 01:32:48;;;;;;;10.65;8.30;;;11.80;99.90;;;;;;5034257;28;20268;-60
2022/09/26 01:35:39;;;;;;;10.85;7.43;;;11.60;99.90;;;;;;5029865;28;20216;-61
2022/09/26 01:38:13;;;;;;;9.52;7.60;;;11.60;99.90;;;;;;5021575;28;20209;-61
2022/09/26 01:41:17;;;;;;;9.57;7.18;;;11.40;99.90;;;;;;5021069;28;20196;-60
2022/09/26 01:43:58;;;;;;;7.88;6.72;;;11.70;99.90;;;;;;5032713;28;20258;-61
2022/09/26 01:46:30;;;;;;;14.90;7.85;;;11.50;99.90;;;;;;5027337;28;20483;-59
2022/09/26 01:49:04;;;;;;;8.15;7.35;;;11.70;99.90;;;;;;5032573;28;20189;-61
2022/09/26 01:51:40;;;;;;;7.93;6.85;;;11.40;99.90;;;;;;5032509;28;20226;-61
2022/09/26 01:54:12;;;;;;;9.50;8.30;;;11.50;99.90;;;;;;5030856;28;20181;-61
2022/09/26 01:56:40;;;;;;;9.93;7.70;;;11.40;99.90;;;;;;5023974;28;20574;-60
2022/09/26 01:59:34;;;;;;;11.23;7.78;;;11.40;99.90;;;;;;5031442;28;20193;-60
2022/09/26 02:02:08;;;;;;;12.85;8.52;;;11.40;99.90;;;;;;5030817;28;20202;-60
2022/09/26 02:04:40;;;;;;;10.05;7.55;;;11.30;99.90;;;;;;5030129;28;20215;-60
2022/09/26 02:07:12;;;;;;;9.18;7.10;;;11.60;99.90;;;;;;5026121;28;20235;-60
2022/09/26 02:09:58;;;;;;;9.05;6.90;;;11.30;99.90;;;;;;5032281;28;20195;-60
2022/09/26 02:12:31;;;;;;;11.85;7.80;;;11.50;99.90;;;;;;5028490;28;20270;-60
2022/09/26 02:15:01;;;;;;;7.75;6.50;;;11.50;99.90;;;;;;5031791;28;20210;-60
2022/09/26 02:17:42;;;;;;;8.23;7.40;;;11.60;99.90;;;;;;5023651;28;20191;-59
2022/09/26 02:20:18;;;;;;;8.63;7.80;;;11.60;99.90;;;;;;5027190;28;20245;-60
2022/09/26 02:22:43;;;;;;;10.15;7.47;;;11.40;99.90;;;;;;5028925;28;20196;-60
2022/09/26 02:25:10;;;;;;;7.43;6.72;;;11.50;99.90;;;;;;5031848;28;20366;-59
2022/09/26 02:27:36;;;;;;;11.18;7.10;;;11.90;99.90;;;;;;5026765;28;20192;-59
2022/09/26 02:30:03;;;;;;;7.85;6.88;;;11.60;99.90;;;;;;5024119;28;20230;-60
2022/09/26 02:32:31;;;;;;;8.07;7.20;;;11.80;99.90;;;;;;5031933;28;20228;-59
2022/09/26 02:34:58;;;;;;;9.70;7.55;;;11.50;99.90;;;;;;5030729;28;20225;-59
2022/09/26 02:37:27;;;;;;;8.57;6.90;;;11.30;99.90;;;;;;5029321;28;20195;-61
2022/09/26 02:39:55;;;;;;;10.70;7.95;;;11.40;99.90;;;;;;5020215;28;20188;-60
2022/09/26 02:43:04;;;;;;;8.02;6.95;;;11.40;99.90;;;;;;5027353;28;20246;-60
2022/09/26 02:45:45;;;;;;;7.28;6.50;;;11.70;99.90;;;;;;4970632;28;20217;-59
2022/09/26 02:48:53;;;;;;;8.93;6.90;;;11.50;99.90;;;;;;4967992;28;20553;-60
2022/09/26 02:51:37;;;;;;;8.45;6.72;;;11.50;99.90;;;;;;4989971;28;20715;-59
2022/09/26 02:54:22;;;;;;;10.90;6.63;;;11.50;99.90;;;;;;5043774;28;20652;-59
2022/09/26 02:57:25;;;;;;;9.15;6.60;;;11.50;99.90;;;;;;5030669;28;20196;-59
2022/09/26 03:00:06;;;;;;;8.40;7.53;;;11.50;99.90;;;;;;5028851;28;20180;-62
2022/09/26 03:02:38;;;;;;;13.82;7.80;;;11.30;99.90;;;;;;5030423;28;20184;-58
2022/09/26 03:05:12;;;;;;;7.38;6.60;;;11.40;99.90;;;;;;5021950;28;20199;-59
2022/09/26 03:07:45;;;;;;;7.07;6.38;;;11.50;99.90;;;;;;5032046;28;20429;-60
2022/09/26 03:10:12;;;;;;;7.10;6.50;;;11.60;99.90;;;;;;5023347;28;20196;-59
2022/09/26 03:12:41;;;;;;;6.90;5.82;;;11.30;99.90;;;;;;5030152;28;20644;-61
2022/09/26 03:15:09;;;;;;;6.40;5.80;;;11.20;99.90;;;;;;5035065;28;20206;-60
2022/09/26 03:17:36;;;;;;;7.95;6.60;;;11.50;99.90;;;;;;5027025;28;20227;-59
2022/09/26 03:20:10;;;;;;;7.03;6.32;;;11.60;99.90;;;;;;5023488;28;20192;-60
2022/09/26 03:22:37;;;;;;;7.78;7.00;;;11.60;99.90;;;;;;5028613;28;20248;-59
2022/09/26 03:25:06;;;;;;;6.60;5.80;;;11.50;99.90;;;;;;5027689;28;20702;-62
2022/09/26 03:27:34;;;;;;;7.95;6.20;;;11.60;99.90;;;;;;5031624;28;20568;-61
2022/09/26 03:30:00;;;;;;;6.40;5.78;;;11.90;99.90;;;;;;5031227;28;20218;-61
2022/09/26 03:32:27;;;;;;;6.05;5.50;;;11.90;99.90;;;;;;5038236;28;20696;-61
2022/09/26 03:34:53;;;;;;;8.93;6.07;;;11.90;99.90;;;;;;5014592;28;20270;-61
2022/09/26 03:37:19;;;;;;;6.63;5.88;;;11.70;99.90;;;;;;5028754;28;20254;-60
2022/09/26 03:39:47;;;;;;;6.23;5.73;;;11.80;99.90;;;;;;5029761;28;20205;-60
2022/09/26 03:42:13;;;;;;;6.28;5.75;;;11.80;99.90;;;;;;5030486;28;20537;-61
2022/09/26 03:44:39;;;;;;;5.85;4.78;;;11.70;99.90;;;;;;5030571;28;20624;-60
2022/09/26 03:47:04;;;;;;;5.73;5.13;;;12.00;99.90;;;;;;5030943;28;20178;-61
2022/09/26 03:49:31;;;;;;;6.70;6.10;;;11.60;99.90;;;;;;5030730;28;20587;-61
2022/09/26 03:51:57;;;;;;;7.38;5.70;;;11.70;99.90;;;;;;5030971;28;20203;-58
2022/09/26 03:54:23;;;;;;;5.73;5.23;;;11.80;99.90;;;;;;5031299;28;20736;-61
2022/09/26 03:56:48;;;;;;;6.40;5.70;;;11.70;99.90;;;;;;5024201;28;20845;-61
2022/09/26 03:59:14;;;;;;;6.97;5.17;;;11.70;99.90;;;;;;5028587;28;20932;-60
2022/09/26 04:01:40;;;;;;;8.17;5.93;;;11.70;99.90;;;;;;5024816;28;20202;-61
2022/09/26 04:04:07;;;;;;;5.38;4.88;;;11.70;99.90;;;;;;5028829;28;20192;-59
2022/09/26 04:06:33;;;;;;;6.00;5.35;;;11.80;99.90;;;;;;5029999;28;20675;-59
2022/09/26 04:08:58;;;;;;;7.57;5.10;;;11.80;99.90;;;;;;5025309;28;20447;-60
2022/09/26 04:11:24;;;;;;;7.93;5.57;;;11.50;99.90;;;;;;5029808;28;20209;-59
2022/09/26 04:13:51;;;;;;;7.30;5.20;;;11.60;99.90;;;;;;5028304;28;20235;-60
2022/09/26 04:16:18;;;;;;;7.70;5.72;;;11.60;99.90;;;;;;5028193;28;20207;-59
2022/09/26 04:18:44;;;;;;;6.50;5.60;;;11.60;99.90;;;;;;5025049;28;20183;-61
2022/09/26 04:21:12;;;;;;;7.37;5.40;;;11.40;99.90;;;;;;5026392;28;20196;-61
2022/09/26 04:23:39;;;;;;;5.72;5.20;;;11.70;99.90;;;;;;5030284;28;20275;-61
2022/09/26 04:26:07;;;;;;;5.68;5.10;;;11.30;99.90;;;;;;5027101;28;20215;-61
2022/09/26 04:28:34;;;;;;;6.32;5.20;;;11.50;99.90;;;;;;5023235;28;20185;-61
2022/09/26 04:31:01;;;;;;;6.53;5.57;;;11.50;99.90;;;;;;5020249;28;20189;-58
2022/09/26 04:33:28;;;;;;;5.32;4.93;;;11.50;99.90;;;;;;5029061;28;20237;-60
2022/09/26 04:35:54;;;;;;;7.97;6.70;;;11.70;99.90;;;;;;5028890;28;20193;-61
2022/09/26 04:38:19;;;;;;;5.60;5.07;;;11.60;99.90;;;;;;5026986;28;20191;-61
2022/09/26 04:40:46;;;;;;;5.83;5.23;;;11.10;99.90;;;;;;5022926;28;20445;-59
2022/09/26 04:43:13;;;;;;;12.00;6.00;;;11.40;99.90;;;;;;5026626;28;20508;-60
2022/09/26 04:45:41;;;;;;;6.05;5.30;;;11.60;99.90;;;;;;5029455;28;20232;-59
2022/09/26 04:48:07;;;;;;;5.65;5.15;;;11.60;99.90;;;;;;5027557;28;20188;-59
2022/09/26 04:50:32;;;;;;;5.43;4.93;;;11.60;99.90;;;;;;5025022;28;20184;-59
2022/09/26 04:53:00;;;;;;;6.20;5.07;;;11.60;99.90;;;;;;5026692;28;20248;-59
2022/09/26 04:55:26;;;;;;;5.60;5.05;;;11.40;99.90;;;;;;5026077;28;20221;-60
2022/09/26 04:57:51;;;;;;;5.90;4.90;;;11.30;99.90;;;;;;5028888;28;20185;-61
2022/09/26 05:00:17;;;;;;;9.30;5.13;;;11.30;99.90;;;;;;5026527;28;20177;-61
2022/09/26 05:02:46;;;;;;;6.23;4.83;;;11.10;99.90;;;;;;5029585;28;20189;-60
2022/09/26 05:05:12;;;;;;;6.05;5.43;;;11.40;99.90;;;;;;5026040;28;20615;-61
2022/09/26 05:07:40;;;;;;;5.15;4.68;;;11.20;99.90;;;;;;5028826;28;20193;-60
2022/09/26 05:10:09;;;;;;;5.18;4.55;;;11.40;99.90;;;;;;5022936;28;20185;-62
2022/09/26 05:12:38;;;;;;;8.35;5.75;;;11.40;99.90;;;;;;5027192;28;20208;-62
2022/09/26 05:15:08;;;;;;;5.30;4.80;;;11.20;99.90;;;;;;5035265;28;20678;-60
2022/09/26 05:17:37;;;;;;;5.63;5.00;;;11.30;99.90;;;;;;5028011;28;20188;-60
2022/09/26 05:20:08;;;;;;;7.15;5.57;;;11.10;99.90;;;;;;5027106;28;20284;-60
2022/09/26 05:22:34;;;;;;;7.78;5.68;;;11.00;99.90;;;;;;5028288;28;20274;-61
2022/09/26 05:27:45;;;;;;;5.63;5.13;;;11.20;99.90;;;;;;5028407;28;20270;-61
2022/09/26 05:30:13;;;;;;;5.70;5.00;;;11.10;99.90;;;;;;5026260;28;20196;-61
2022/09/26 05:32:40;;;;;;;17.23;12.95;;;10.90;99.90;;;;;;5028731;28;20847;-60
2022/09/26 05:35:07;;;;;;;8.02;6.10;;;10.90;99.90;;;;;;5025445;28;20217;-60
2022/09/26 05:37:33;;;;;;;6.10;5.50;;;11.30;99.90;;;;;;5026743;28;20196;-60
2022/09/26 05:43:03;;;;;;;5.45;4.95;;;11.00;99.90;;;;;;4999877;28;20655;-62
2022/09/26 05:45:30;;;;;;;6.50;5.10;;;11.40;99.90;;;;;;4985650;28;20348;-59
2022/09/26 05:47:56;;;;;;;4.90;4.40;;;11.20;99.90;;;;;;5016059;28;20196;-61
2022/09/26 05:50:23;;;;;;;4.90;4.38;;;11.20;99.90;;;;;;5026515;28;20646;-61
2022/09/26 05:52:51;;;;;;;5.22;4.68;;;11.30;99.90;;;;;;5030880;28;20222;-60
2022/09/26 05:55:16;;;;;;;6.07;5.13;;;11.50;99.90;;;;;;5023793;28;20282;-61
2022/09/26 05:57:53;;;;;;;5.90;4.73;;;11.20;99.90;;;;;;5031561;28;20270;-62
2022/09/26 06:00:19;;;;;;;6.28;4.75;;;11.10;99.90;;;;;;5036535;28;20184;-59
2022/09/26 06:02:45;;;;;;;5.32;4.60;;;11.20;99.90;;;;;;5036005;28;20543;-59
2022/09/26 06:05:11;;;;;;;7.33;5.37;;;11.20;99.90;;;;;;5032223;28;20218;-58
2022/09/26 06:07:37;;;;;;;5.60;4.87;;;11.40;99.90;;;;;;5027337;28;20406;-59
2022/09/26 06:10:04;;;;;;;4.80;4.40;;;11.60;99.90;;;;;;5028987;28;20512;-59
2022/09/26 06:12:30;;;;;;;4.88;4.53;;;11.50;99.90;;;;;;5031852;28;20547;-59
2022/09/26 06:14:55;;;;;;;6.18;4.63;;;11.70;99.90;;;;;;5032909;28;20213;-58
2022/09/26 06:17:22;;;;;;;6.27;5.20;;;11.50;99.90;;;;;;5031995;28;20187;-58
2022/09/26 06:19:48;;;;;;;6.75;4.95;;;11.80;99.90;;;;;;5028702;28;20221;-57
2022/09/26 06:22:14;;;;;;;5.50;4.50;;;11.70;99.90;;;;;;5033066;28;20736;-58
2022/09/26 06:24:40;;;;;;;6.60;4.27;;;12.00;99.90;;;;;;5024975;28;20325;-64
2022/09/26 06:27:05;;;;;;;7.37;4.40;;;11.90;99.90;;;;;;5041070;28;20228;-64
2022/09/26 06:29:31;;;;;;;6.03;4.50;;;12.10;99.90;;;;;;5033689;28;20194;-62
2022/09/26 06:31:56;;;;;;;5.17;4.40;;;12.20;99.90;;;;;;5028320;28;20213;-62
2022/09/26 06:34:24;;;;;;;5.53;4.90;;;12.30;99.90;;;;;;5035049;28;20253;-63
2022/09/26 06:36:50;;;;;;;4.90;4.30;;;12.60;99.90;;;;;;5039812;28;20271;-65
2022/09/26 06:39:16;;;;;;;7.50;4.00;;;12.70;99.90;;;;;;5037219;28;20654;-65
2022/09/26 06:41:42;;;;;;;4.50;4.10;;;12.60;99.90;;;;;;5032158;28;20194;-64
2022/09/26 06:44:08;;;;;;;10.17;4.40;;;12.60;99.90;;;;;;5026840;28;20194;-65
2022/09/26 06:46:34;;;;;;;7.97;3.80;;;12.90;99.90;;;;;;5030692;28;20206;-67
2022/09/26 06:48:59;;;;;;;6.27;4.70;;;13.00;99.90;;;;;;5030068;28;20182;-63
2022/09/26 06:51:25;;;;;;;7.47;4.20;;;13.00;99.90;;;;;;5028098;28;20214;-61
2022/09/26 06:53:50;;;;;;;4.40;4.00;;;13.00;99.90;;;;;;5032652;28;20662;-62
2022/09/26 06:56:17;;;;;;;6.40;4.27;;;13.20;99.90;;;;;;5030717;28;20210;-62
2022/09/26 06:58:42;;;;;;;5.15;4.65;;;13.20;99.90;;;;;;5039841;28;20181;-62
2022/09/26 07:01:08;;;;;;;5.50;4.43;;;13.30;99.90;;;;;;5035541;28;20197;-59
2022/09/26 07:03:35;;;;;;;4.40;4.10;;;13.20;99.90;;;;;;5036741;28;20189;-58
2022/09/26 07:06:02;;;;;;;4.50;4.10;;;13.30;99.90;;;;;;5034009;28;20209;-58
2022/09/26 07:08:29;;;;;;;5.38;3.72;;;13.40;99.90;;;;;;5030820;28;20654;-58
2022/09/26 07:11:00;;;;;;;3.70;3.40;;;13.10;99.90;;;;;;5032373;28;20205;-59
2022/09/26 07:13:28;;;;;;;3.75;3.45;;;13.90;99.90;;;;;;5037276;28;20205;-59
2022/09/26 07:15:58;;;;;;;3.97;3.42;;;13.90;99.90;;;;;;5012880;28;20232;-69
2022/09/26 07:18:24;;;;;;;4.75;3.80;;;14.60;99.90;;;;;;5022313;28;20221;-66
2022/09/26 07:20:52;;;;;;;2.90;2.70;;;15.90;99.90;;;;;;5025018;28;20209;-67
2022/09/26 07:23:18;;;;;;;3.50;3.20;;;16.10;99.90;;;;;;5030260;28;20620;-68
2022/09/26 07:25:45;;;;;;;3.83;3.43;;;16.60;99.90;;;;;;5036258;28;20301;-66
2022/09/26 07:28:12;;;;;;;3.65;3.35;;;16.40;99.90;;;;;;5036169;28;20495;-66
2022/09/26 07:30:37;;;;;;;4.07;3.30;;;16.90;99.90;;;;;;5031571;28;20182;-69
2022/09/26 07:33:04;;;;;;;4.30;3.90;;;16.70;99.70;;;;;;5040920;28;20209;-66
2022/09/26 07:35:31;;;;;;;3.85;3.10;;;16.40;99.70;;;;;;5032514;28;20236;-64
2022/09/26 07:37:57;;;;;;;4.20;3.83;;;16.20;99.70;;;;;;5023111;28;20186;-65
2022/09/26 07:40:24;;;;;;;3.40;3.10;;;16.30;99.90;;;;;;5028560;28;20182;-67
2022/09/26 07:42:51;;;;;;;4.35;2.80;;;16.10;99.90;;;;;;5041578;28;20436;-67
2022/09/26 07:50:10;;;;;;;2.90;2.60;;;15.90;99.90;;;;;;5032329;28;20237;-68
2022/09/26 07:50:56;;;;;;;3.30;2.78;;;15.80;99.90;;;;;;5026676;28;20559;-68
2022/09/26 07:53:24;;;;;;;3.58;3.28;;;15.60;99.90;;;;;;5032286;28;20178;-64
2022/09/26 07:56:06;;;;;;;2.78;2.58;;;15.50;99.90;;;;;;5035134;28;20322;-65
2022/09/26 07:58:37;;;;;;;2.90;2.70;;;15.80;99.90;;;;;;5027562;28;20213;-62
2022/09/26 08:01:04;;;;;;;2.90;2.70;;;15.80;99.90;;;;;;5026024;28;20210;-63
2022/09/26 08:03:29;;;;;;;3.67;2.60;;;15.30;99.90;;;;;;5033560;28;20289;-63
2022/09/26 08:05:58;;;;;;;3.43;3.13;;;15.40;99.90;;;;;;5019725;28;20222;-64
2022/09/26 08:08:23;;;;;;;2.80;2.60;;;15.50;99.90;;;;;;5029203;28;20184;-64
2022/09/26 08:10:49;;;;;;;3.13;2.83;;;15.10;99.90;;;;;;5023345;28;20190;-64
2022/09/26 08:13:15;;;;;;;2.60;2.40;;;15.40;99.90;;;;;;5027427;28;20217;-63
2022/09/26 08:15:41;;;;;;;3.13;2.88;;;15.40;99.90;;;;;;5033667;28;20285;-69
2022/09/26 08:18:07;;;;;;;3.33;3.07;;;15.50;99.90;;;;;;5030047;28;20328;-70
2022/09/26 08:20:32;;;;;;;4.57;2.83;;;15.40;99.90;;;;;;5035793;28;20186;-64
2022/09/26 08:22:59;;;;;;;3.10;2.83;;;15.70;99.90;;;;;;5034852;28;20182;-60
2022/09/26 08:25:26;;;;;;;2.90;2.70;;;15.70;99.90;;;;;;5030191;28;20459;-61
2022/09/26 08:27:52;;;;;;;3.53;3.17;;;15.70;99.90;;;;;;5026255;28;20586;-61
2022/09/26 08:30:18;;;;;;;3.80;3.20;;;15.90;99.90;;;;;;5031089;28;20189;-60
2022/09/26 08:32:52;;;;;;;3.40;3.03;;;15.90;99.90;;;;;;5026309;28;20214;-72
2022/09/26 08:35:17;;;;;;;3.85;3.20;;;16.20;99.90;;;;;;5038542;28;20237;-73
2022/09/26 08:37:43;;;;;;;3.97;3.17;;;15.90;99.90;;;;;;5031931;28;20264;-73
2022/09/26 08:40:09;;;;;;;3.53;2.92;;;16.00;99.90;;;;;;5024883;28;20192;-69
2022/09/26 08:42:35;;;;;;;3.65;3.35;;;16.20;99.90;;;;;;5028218;28;20563;-71
2022/09/26 08:48:42;;;;;;;5.43;2.65;;;16.60;99.90;;;;;;5032059;28;20193;-68
2022/09/26 08:51:35;;;;;;;4.07;2.50;;;16.60;99.90;;;;;;5022540;28;20217;-61
2022/09/26 08:54:08;;;;;;;6.70;2.85;;;16.80;98.90;;;;;;5029321;28;20728;-64
2022/09/26 08:56:39;;;;;;;7.13;2.60;;;17.20;98.40;;;;;;5025525;28;20189;-62
2022/09/26 08:59:14;;;;;;;3.20;2.90;;;17.70;97.90;;;;;;5042987;28;20179;-64
2022/09/26 09:01:43;;;;;;;3.08;2.63;;;17.60;96.60;;;;;;5031014;28;20233;-65
2022/09/26 09:04:23;;;;;;;4.05;2.72;;;18.00;95.90;;;;;;5027566;28;20222;-63
2022/09/26 09:07:01;;;;;;;2.67;2.47;;;17.90;95.90;;;;;;5029102;28;20686;-62
2022/09/26 09:09:26;;;;;;;2.75;2.55;;;17.70;95.40;;;;;;5022819;28;20206;-60
2022/09/26 09:12:13;;;;;;;2.70;2.50;;;17.50;96.10;;;;;;5030115;28;20225;-59
2022/09/26 09:15:01;;;;;;;2.75;2.28;;;17.40;96.50;;;;;;5033072;28;20218;-59
2022/09/26 09:17:47;;;;;;;3.65;2.22;;;17.20;95.20;;;;;;5035190;28;20181;-62
2022/09/26 09:20:16;;;;;;;3.72;2.60;;;17.10;95.70;;;;;;5032209;28;20193;-61
2022/09/26 09:23:27;;;;;;;5.47;2.70;;;17.30;96.10;;;;;;5032238;28;20195;-69
2022/09/26 09:26:14;;;;;;;3.67;2.40;;;17.10;95.80;;;;;;5030119;28;20209;-66
2022/09/26 09:29:10;;;;;;;2.90;2.15;;;17.20;96.10;;;;;;5033019;28;20716;-66
2022/09/26 09:31:39;;;;;;;3.42;2.15;;;17.40;95.60;;;;;;5034023;28;20259;-66
2022/09/26 09:34:11;;;;;;;2.65;2.30;;;17.80;94.50;;;;;;5028809;28;20191;-62
2022/09/26 09:36:47;;;;;;;3.30;2.60;;;18.50;93.90;;;;;;5037182;28;20232;-67
2022/09/26 09:39:39;;;;;;;3.30;2.00;;;19.60;92.50;;;;;;5032008;28;20174;-65
2022/09/26 09:42:29;;;;;;;2.80;1.80;;;21.50;87.80;;;;;;5028303;28;20195;-66
2022/09/26 09:45:43;;;;;;;4.37;2.80;;;23.70;79.80;;;;;;5034547;28;20481;-60
2022/09/26 09:48:12;;;;;;;2.33;2.13;;;25.90;70.10;;;;;;5030708;28;20447;-60
2022/09/26 09:50:43;;;;;;;2.30;2.10;;;27.80;59.10;;;;;;5037259;28;20438;-60
2022/09/26 09:53:41;;;;;;;2.33;1.90;;;28.40;56.50;;;;;;5031066;28;20555;-69
2022/09/26 09:56:44;;;;;;;2.10;1.90;;;28.20;54.70;;;;;;5022765;28;20482;-69
2022/09/26 09:59:39;;;;;;;2.23;1.90;;;28.30;54.50;;;;;;5004685;28;20432;-68
2022/09/26 10:02:23;;;;;;;1.80;1.70;;;27.80;53.80;;;;;;5028101;28;20865;-68
2022/09/26 10:05:02;;;;;;;2.50;1.80;;;26.80;55.30;;;;;;5020997;28;20470;-68
2022/09/26 10:07:28;;;;;;;3.33;1.83;;;27.00;55.90;;;;;;5021854;28;20477;-69
2022/09/26 10:09:54;;;;;;;2.00;1.77;;;27.10;54.30;;;;;;5030483;28;20472;-69
2022/09/26 10:12:27;;;;;;;2.70;2.00;;;26.10;55.40;;;;;;5028448;28;20205;-69
2022/09/26 10:14:59;;;;;;;2.83;1.60;;;25.50;56.30;;;;;;5048701;28;20219;-68
2022/09/26 10:17:26;;;;;;;2.00;1.80;;;24.60;57.60;;;;;;5031353;28;20523;-67
2022/09/26 10:19:51;;;;;;;1.83;1.73;;;23.80;59.30;;;;;;5035107;28;20437;-68
2022/09/26 10:22:24;;;;;;;2.60;1.50;;;22.80;60.00;;;;;;5039052;28;20446;-68
2022/09/26 10:24:53;;;;;;;1.98;1.80;;;21.60;63.60;;;;;;5039323;28;20321;-68
2022/09/26 10:27:53;;;;;;;1.75;1.65;;;21.10;65.40;;;;;;5029454;28;20193;-67
2022/09/26 10:30:27;;;;;;;3.97;2.10;;;20.50;68.20;;;;;;5032489;28;20187;-69
2022/09/26 10:33:00;;;;;;;2.10;1.90;;;20.10;70.50;;;;;;5032231;28;20210;-69
2022/09/26 10:35:44;;;;;;;2.95;1.90;;;19.80;71.70;;;;;;5034323;28;20321;-70
2022/09/26 10:38:26;;;;;;;1.80;1.70;;;19.80;73.60;;;;;;5035510;28;21225;-67
2022/09/26 10:40:58;;;;;;;2.20;2.00;;;19.60;71.80;;;;;;5032358;28;20226;-67
2022/09/26 10:43:31;;;;;;;2.72;1.75;;;19.40;72.60;;;;;;5038366;28;20182;-67
2022/09/26 10:46:13;;;;;;;1.88;1.70;;;19.10;73.10;;;;;;5034805;28;20211;-68
2022/09/26 10:48:55;;;;;;;2.70;2.10;;;19.00;73.30;;;;;;5030137;28;20193;-68
2022/09/26 10:51:34;;;;;;;2.13;1.83;;;18.90;76.10;;;;;;5027070;28;20219;-68
2022/09/26 10:54:10;;;;;;;2.45;1.90;;;18.80;76.70;;;;;;5036227;28;20182;-68
2022/09/26 10:56:41;;;;;;;1.88;1.77;;;18.80;76.90;;;;;;5027644;28;20174;-62
2022/09/26 10:59:08;;;;;;;2.75;1.70;;;18.90;76.50;;;;;;5027971;28;20186;-63
2022/09/26 11:01:41;;;;;;;1.55;1.45;;;18.80;76.00;;;;;;5027785;28;20530;-61
2022/09/26 11:07:09;;;;;;;2.58;1.70;;;18.60;75.40;;;;;;5026697;28;20694;-60
2022/09/26 11:09:37;;;;;;;2.40;1.58;;;18.40;77.00;;;;;;5026152;28;20194;-64
2022/09/26 11:12:25;;;;;;;2.45;1.50;;;18.60;75.70;;;;;;5031728;28;20566;-66
2022/09/26 11:15:04;;;;;;;2.92;2.20;;;18.60;75.70;;;;;;5033307;28;20228;-67
2022/09/26 11:17:50;;;;;;;4.07;1.63;;;18.60;80.60;;;;;;5037435;28;20190;-65
2022/09/26 11:20:24;;;;;;;2.00;1.60;;;18.40;84.60;;;;;;5027928;28;20186;-66
2022/09/26 11:23:30;;;;;;;1.60;1.50;;;18.30;85.20;;;;;;5029820;28;20560;-69
2022/09/26 11:26:21;;;;;;;2.30;2.10;;;18.30;84.90;;;;;;5028441;28;20251;-64
2022/09/26 11:29:03;;;;;;;1.55;1.45;;;18.40;86.50;;;;;;5031397;28;20240;-65
2022/09/26 11:31:42;;;;;;;3.60;1.92;;;18.40;83.20;;;;;;5029361;28;20221;-65
2022/09/26 11:34:27;;;;;;;1.88;1.35;;;18.20;81.40;;;;;;5023914;28;20190;-64
2022/09/26 11:37:07;;;;;;;1.85;1.75;;;18.40;79.60;;;;;;5030507;28;20182;-67
2022/09/26 11:39:53;;;;;;;1.80;1.30;;;18.60;80.70;;;;;;5024940;28;20186;-66
2022/09/26 11:42:25;;;;;;;2.50;1.40;;;18.60;75.30;;;;;;5026552;28;20198;-64
2022/09/26 11:44:59;;;;;;;1.80;1.40;;;18.70;77.10;;;;;;5027165;28;20202;-63
2022/09/26 11:47:43;;;;;;;3.00;1.92;;;19.10;79.00;;;;;;5031429;28;20538;-64
2022/09/26 11:50:34;;;;;;;1.55;1.45;;;18.50;79.30;;;;;;5028972;28;20713;-65
2022/09/26 11:53:13;;;;;;;1.25;1.15;;;18.00;78.30;;;;;;5035286;28;20598;-63
2022/09/26 11:55:42;;;;;;;2.00;1.20;;;18.20;79.10;;;;;;5031239;28;20228;-64
2022/09/26 11:58:27;;;;;;;1.70;1.60;;;18.10;80.60;;;;;;5029756;28;20171;-61
2022/09/26 12:01:07;;;;;;;1.30;1.20;;;18.10;80.50;;;;;;5029722;28;20216;-65
2022/09/26 12:03:50;;;;;;;2.97;1.80;;;18.20;81.50;;;;;;5028132;28;20228;-65
2022/09/26 12:06:46;;;;;;;1.17;1.15;;;18.20;79.60;;;;;;5029597;28;20218;-65
2022/09/26 12:09:32;;;;;;;6.10;1.30;;;18.10;79.30;;;;;;5026853;28;20209;-66
2022/09/26 12:12:10;;;;;;;1.58;1.30;;;17.50;87.70;;;;;;5020870;28;20221;-59
2022/09/26 12:14:41;;;;;;;6.20;5.10;;;17.10;90.90;;;;;;5048320;28;20566;-58
2022/09/26 12:17:24;;;;;;;3.45;1.98;;;16.70;93.30;;;;;;5031437;28;20181;-59
2022/09/26 12:20:13;;;;;;;1.60;1.50;;;16.60;94.80;;;;;;5026542;28;20185;-58
2022/09/26 12:22:50;;;;;;;1.60;1.50;;;16.70;95.80;;;;;;4986673;28;20225;-59
2022/09/26 12:25:24;;;;;;;3.15;1.58;;;16.80;95.60;;;;;;5021333;28;20661;-60
2022/09/26 12:28:15;;;;;;;2.10;1.90;;;16.70;97.30;;;;;;5026598;28;20457;-60
2022/09/26 12:31:07;;;;;;;3.35;2.08;;;16.70;99.30;;;;;;5020487;28;20181;-62
2022/09/26 12:34:01;;;;;;;1.70;1.60;;;17.00;99.90;;;;;;5026856;28;20490;-61
2022/09/26 12:36:46;;;;;;;2.05;1.95;;;16.70;99.40;;;;;;5025925;28;20186;-60
2022/09/26 12:39:32;;;;;;;3.95;2.10;;;16.90;99.90;;;;;;5026798;28;20188;-60
2022/09/26 12:42:27;;;;;;;3.13;2.47;;;16.90;99.90;;;;;;5023637;28;20267;-60
2022/09/26 12:45:28;;;;;;;1.60;1.50;;;16.90;99.90;;;;;;5028140;28;20202;-60
2022/09/26 12:48:16;;;;;;;2.25;1.70;;;16.90;95.90;;;;;;5020647;28;20216;-59
2022/09/26 12:51:14;;;;;;;1.83;1.70;;;17.00;93.90;;;;;;5025792;28;20190;-58
2022/09/26 12:54:09;;;;;;;2.35;1.55;;;17.10;94.90;;;;;;5027674;28;20186;-58
2022/09/26 12:56:50;;;;;;;1.40;1.30;;;17.00;93.50;;;;;;5022313;28;20260;-64
2022/09/26 12:59:34;;;;;;;1.23;1.10;;;17.00;93.20;;;;;;5025354;28;20237;-60
2022/09/26 13:02:15;;;;;;;2.65;1.20;;;17.10;92.50;;;;;;5035127;28;20198;-61
2022/09/26 13:05:19;;;;;;;1.08;1.00;;;17.30;93.20;;;;;;5027028;28;20233;-61
2022/09/26 13:07:54;;;;;;;1.27;1.10;;;17.30;90.00;;;;;;5024790;28;20248;-63
2022/09/26 13:10:34;;;;;;;1.00;0.90;;;17.40;90.10;;;;;;5015681;28;20191;-63
2022/09/26 13:13:32;;;;;;;1.33;1.23;;;17.40;90.20;;;;;;5021151;28;20273;-66
2022/09/26 13:16:23;;;;;;;1.42;1.30;;;17.20;90.70;;;;;;4973335;28;20323;-63
2022/09/26 13:18:59;;;;;;;2.00;0.80;;;17.20;89.80;;;;;;5028934;28;20296;-61
2022/09/26 13:21:43;;;;;;;1.30;0.80;;;16.90;89.20;;;;;;5026263;28;20186;-60
2022/09/26 13:24:20;;;;;;;0.95;0.80;;;16.80;89.30;;;;;;5048228;28;20189;-62
2022/09/26 13:27:21;;;;;;;1.08;0.82;;;17.20;88.10;;;;;;5036506;28;20186;-61
2022/09/26 13:29:57;;;;;;;0.70;0.60;;;17.10;85.50;;;;;;5025416;28;20223;-59
2022/09/26 13:32:29;;;;;;;1.95;0.70;;;16.80;85.20;;;;;;5036297;28;20213;-61
2022/09/26 13:35:11;;;;;;;1.65;0.70;;;17.00;85.60;;;;;;5028742;28;20677;-62